Time;durP1;ratioP1;P1;durP2;ratioP2;P2;SDS_P1;SDS_P2;PMS_P1;PMS_P2;Temp;Humidity;BMP_temperature;BMP_pressure;BME280_temperature;BME280_humidity;BME280_pressure;Samples;Min_cycle;Max_cycle;Signal;HPM_P1;HPM_P2
2023/05/24 00:00:56;;;;;;;1999.90;999.90;;;10.00;99.90;;;;;;5054459;28;20444;-70
2023/05/24 00:03:21;;;;;;;1999.90;999.90;;;10.10;99.90;;;;;;5054577;28;20780;-70
2023/05/24 00:05:47;;;;;;;1999.90;999.90;;;10.10;99.90;;;;;;5054458;28;20199;-70
2023/05/24 00:08:14;;;;;;;1999.90;999.90;;;10.10;99.90;;;;;;5053684;28;20199;-70
2023/05/24 00:10:40;;;;;;;1999.90;999.90;;;10.10;99.90;;;;;;5054288;28;20203;-70
2023/05/24 00:13:06;;;;;;;1999.90;999.90;;;10.20;99.90;;;;;;5054139;28;20409;-70
2023/05/24 00:15:32;;;;;;;1999.90;999.90;;;10.20;99.90;;;;;;5054331;28;20186;-70
2023/05/24 00:17:57;;;;;;;1999.90;999.90;;;10.20;99.90;;;;;;5054262;28;20164;-70
2023/05/24 00:20:23;;;;;;;1999.90;999.90;;;10.10;99.90;;;;;;5054115;28;20552;-70
2023/05/24 00:22:48;;;;;;;1999.90;999.90;;;10.10;99.90;;;;;;5053851;28;20179;-70
2023/05/24 00:25:14;;;;;;;1999.90;999.90;;;10.10;99.90;;;;;;5054010;28;20757;-70
2023/05/24 00:27:40;;;;;;;1999.90;999.90;;;10.10;99.90;;;;;;5054319;28;20601;-70
2023/05/24 00:30:06;;;;;;;1999.90;999.90;;;10.10;99.90;;;;;;5054005;28;20561;-70
2023/05/24 00:32:32;;;;;;;1999.90;999.90;;;10.10;99.90;;;;;;5053697;28;20659;-70
2023/05/24 00:34:58;;;;;;;1999.90;999.90;;;10.00;99.90;;;;;;5053938;28;20406;-70
2023/05/24 00:37:23;;;;;;;1999.90;999.90;;;10.10;99.90;;;;;;5053718;28;20479;-70
2023/05/24 00:39:49;;;;;;;1999.90;999.90;;;10.10;99.90;;;;;;5053683;28;20708;-70
2023/05/24 00:42:15;;;;;;;1999.90;999.90;;;10.00;99.90;;;;;;5053934;28;20265;-70
2023/05/24 00:44:40;;;;;;;1999.90;999.90;;;10.00;99.90;;;;;;5053773;28;20621;-70
2023/05/24 00:47:06;;;;;;;1999.90;999.90;;;9.90;99.90;;;;;;5053768;28;20163;-70
2023/05/24 00:49:32;;;;;;;1999.90;999.90;;;9.90;99.90;;;;;;5053677;28;20212;-70
2023/05/24 00:51:58;;;;;;;1999.90;999.90;;;9.90;99.90;;;;;;5053394;28;20406;-70
2023/05/24 00:54:25;;;;;;;1999.90;999.90;;;10.00;99.90;;;;;;5053599;28;20179;-70
2023/05/24 00:56:52;;;;;;;1999.90;999.90;;;10.00;99.90;;;;;;5053620;28;20408;-70
2023/05/24 00:59:17;;;;;;;1999.90;999.90;;;9.90;99.90;;;;;;5053635;28;20435;-70
2023/05/24 01:01:45;;;;;;;1999.90;999.90;;;9.90;99.90;;;;;;5053313;28;21162;-70
2023/05/24 01:04:12;;;;;;;1999.90;999.90;;;9.90;99.90;;;;;;5053329;28;20630;-70
2023/05/24 01:06:59;;;;;;;1999.90;999.90;;;9.80;99.90;;;;;;5053388;28;20411;-70
2023/05/24 01:09:42;;;;;;;1999.90;999.90;;;9.80;99.90;;;;;;5053341;28;20786;-70
2023/05/24 01:12:31;;;;;;;1999.90;999.90;;;9.80;99.90;;;;;;5053054;28;20401;-70
2023/05/24 01:15:09;;;;;;;1999.90;999.90;;;9.70;99.90;;;;;;5053255;28;20771;-70
2023/05/24 01:17:49;;;;;;;1999.90;999.90;;;9.70;99.90;;;;;;5053177;28;20405;-70
2023/05/24 01:20:16;;;;;;;1999.90;999.90;;;9.70;99.90;;;;;;5053185;28;20440;-70
2023/05/24 01:23:00;;;;;;;1999.90;999.90;;;9.60;99.90;;;;;;5052883;28;20409;-70
2023/05/24 01:25:44;;;;;;;1999.90;999.90;;;9.60;99.90;;;;;;5052988;28;20456;-70
2023/05/24 01:28:11;;;;;;;1999.90;999.90;;;9.60;99.90;;;;;;5052985;28;20400;-70
2023/05/24 01:30:41;;;;;;;1999.90;999.90;;;9.50;99.90;;;;;;5052813;28;20962;-70
2023/05/24 01:33:07;;;;;;;1999.90;999.90;;;9.60;99.90;;;;;;5052600;28;20394;-70
2023/05/24 01:35:39;;;;;;;1999.90;999.90;;;9.60;99.90;;;;;;5052834;28;20406;-70
2023/05/24 01:38:05;;;;;;;1999.90;999.90;;;9.50;99.90;;;;;;5052765;28;20931;-70
2023/05/24 01:40:32;;;;;;;1999.90;999.90;;;9.50;99.90;;;;;;5052496;28;20453;-70
2023/05/24 01:43:04;;;;;;;1999.90;999.90;;;9.50;99.90;;;;;;5052423;28;20420;-71
2023/05/24 01:45:48;;;;;;;1999.90;999.90;;;9.60;99.90;;;;;;5052720;28;20464;-70
2023/05/24 01:48:27;;;;;;;1999.90;999.90;;;9.40;99.90;;;;;;5052529;28;20440;-70
2023/05/24 01:50:57;;;;;;;1999.90;999.90;;;9.30;99.90;;;;;;5052475;28;20409;-70
2023/05/24 01:53:25;;;;;;;1999.90;999.90;;;9.40;99.90;;;;;;5052534;28;20447;-70
2023/05/24 01:55:54;;;;;;;1999.90;999.90;;;9.30;99.90;;;;;;5052591;28;20779;-70
2023/05/24 01:58:22;;;;;;;1999.90;999.90;;;9.30;99.90;;;;;;5052412;28;20393;-70
2023/05/24 02:00:49;;;;;;;1999.90;999.90;;;9.30;99.90;;;;;;5052256;28;20435;-70
2023/05/24 02:03:15;;;;;;;1999.90;999.90;;;9.20;99.90;;;;;;5052055;28;20406;-70
2023/05/24 02:05:43;;;;;;;1999.90;999.90;;;9.10;99.90;;;;;;5052244;28;20460;-70
2023/05/24 02:08:09;;;;;;;1999.90;999.90;;;9.00;99.90;;;;;;5052198;28;20406;-70
2023/05/24 02:10:37;;;;;;;1999.90;999.90;;;8.90;99.90;;;;;;5052144;28;20432;-70
2023/05/24 02:13:02;;;;;;;1999.90;999.90;;;8.70;99.90;;;;;;5051964;28;20402;-70
2023/05/24 02:15:29;;;;;;;1999.90;999.90;;;8.60;99.90;;;;;;5052098;28;20432;-70
2023/05/24 02:17:55;;;;;;;1999.90;999.90;;;8.60;99.90;;;;;;5052117;28;20533;-70
2023/05/24 02:20:21;;;;;;;1999.90;999.90;;;8.60;99.90;;;;;;5051979;28;20425;-70
2023/05/24 02:22:48;;;;;;;1999.90;999.90;;;8.50;99.90;;;;;;5051771;28;20409;-70
2023/05/24 02:25:14;;;;;;;1999.90;999.90;;;8.50;99.90;;;;;;5051842;28;20453;-70
2023/05/24 02:27:40;;;;;;;1999.90;999.90;;;8.40;99.90;;;;;;5052027;28;20490;-70
2023/05/24 02:30:07;;;;;;;1999.90;999.90;;;8.30;99.90;;;;;;5051846;28;20476;-70
2023/05/24 02:32:36;;;;;;;1999.90;999.90;;;8.30;99.90;;;;;;5051107;28;20409;-70
2023/05/24 02:35:02;;;;;;;1999.90;999.90;;;8.30;99.90;;;;;;5051804;28;20419;-70
2023/05/24 02:37:27;;;;;;;1999.90;999.90;;;8.20;99.90;;;;;;5051944;28;20404;-70
2023/05/24 02:39:53;;;;;;;1999.90;999.90;;;8.20;99.90;;;;;;5051681;28;20213;-70
2023/05/24 02:42:18;;;;;;;1999.90;999.90;;;8.20;99.90;;;;;;5051554;28;20557;-70
2023/05/24 02:44:47;;;;;;;1999.90;999.90;;;8.10;99.90;;;;;;5051699;28;20290;-70
2023/05/24 02:47:13;;;;;;;1999.90;999.90;;;8.10;99.90;;;;;;5051750;28;20166;-70
2023/05/24 02:49:39;;;;;;;1999.90;999.90;;;8.10;99.90;;;;;;5051708;28;20427;-70
2023/05/24 02:52:05;;;;;;;1999.90;999.90;;;8.10;99.90;;;;;;5051508;28;20405;-70
2023/05/24 02:54:31;;;;;;;1999.90;999.90;;;8.10;99.90;;;;;;5051792;28;20166;-70
2023/05/24 02:56:56;;;;;;;1999.90;999.90;;;8.10;99.90;;;;;;5051690;28;20966;-70
2023/05/24 02:59:23;;;;;;;1999.90;999.90;;;8.20;99.90;;;;;;5051563;28;20223;-70
2023/05/24 03:01:49;;;;;;;1999.90;999.90;;;8.20;99.90;;;;;;5051307;28;20170;-70
2023/05/24 03:04:15;;;;;;;1999.90;999.90;;;8.20;99.90;;;;;;5051569;28;20469;-70
2023/05/24 03:06:41;;;;;;;1999.90;999.90;;;8.20;99.90;;;;;;5051654;28;20829;-70
2023/05/24 03:09:06;;;;;;;1999.90;999.90;;;8.20;99.90;;;;;;5051501;28;20598;-70
2023/05/24 03:11:32;;;;;;;1999.90;999.90;;;8.30;99.90;;;;;;5051408;28;20162;-70
2023/05/24 03:13:57;;;;;;;1999.90;999.90;;;8.30;99.90;;;;;;5051531;28;20664;-70
2023/05/24 03:16:24;;;;;;;1999.90;999.90;;;8.30;99.90;;;;;;5051485;28;20229;-70
2023/05/24 03:18:49;;;;;;;1999.90;999.90;;;8.40;99.90;;;;;;5051492;28;20181;-70
2023/05/24 03:21:16;;;;;;;1999.90;999.90;;;8.30;99.90;;;;;;5051238;28;20426;-70
2023/05/24 03:23:42;;;;;;;1999.90;999.90;;;8.30;99.90;;;;;;5051507;28;20166;-70
2023/05/24 03:26:08;;;;;;;1999.90;999.90;;;8.30;99.90;;;;;;5051584;28;20450;-70
2023/05/24 03:28:34;;;;;;;1999.90;999.90;;;8.20;99.90;;;;;;5051361;28;20432;-70
2023/05/24 03:31:00;;;;;;;1999.90;999.90;;;8.20;99.90;;;;;;5051261;28;20194;-70
2023/05/24 03:33:25;;;;;;;1999.90;999.90;;;8.10;99.90;;;;;;5051373;28;20492;-70
2023/05/24 03:35:51;;;;;;;1999.90;999.90;;;8.10;99.90;;;;;;5051394;28;20671;-70
2023/05/24 03:38:16;;;;;;;1999.90;999.90;;;8.10;99.90;;;;;;5051397;28;20541;-70
2023/05/24 03:40:42;;;;;;;1999.90;999.90;;;8.10;99.90;;;;;;5051121;28;20212;-70
2023/05/24 03:43:08;;;;;;;1999.90;999.90;;;8.10;99.90;;;;;;5051210;28;20176;-70
2023/05/24 03:45:33;;;;;;;1999.90;999.90;;;8.20;99.90;;;;;;5054842;28;20259;-70
2023/05/24 03:47:59;;;;;;;1999.90;999.90;;;8.10;99.90;;;;;;5054902;28;20257;-70
2023/05/24 03:50:24;;;;;;;1999.90;999.90;;;7.90;99.90;;;;;;5054735;28;20186;-70
2023/05/24 03:52:50;;;;;;;1999.90;999.90;;;7.80;99.90;;;;;;5054541;28;20176;-70
2023/05/24 03:55:15;;;;;;;1999.90;999.90;;;7.80;99.90;;;;;;5055006;28;20174;-70
2023/05/24 03:57:41;;;;;;;1999.90;999.90;;;7.70;99.90;;;;;;5054628;28;20174;-70
2023/05/24 04:00:08;;;;;;;1999.90;999.90;;;7.70;99.90;;;;;;5054710;28;20725;-69
2023/05/24 04:02:36;;;;;;;1999.90;999.90;;;7.70;99.90;;;;;;5054296;28;20410;-69
2023/05/24 04:05:03;;;;;;;1999.90;999.90;;;7.70;99.90;;;;;;5054553;28;20488;-70
2023/05/24 04:07:32;;;;;;;1999.90;999.90;;;7.70;99.90;;;;;;5054855;28;20416;-70
2023/05/24 04:09:58;;;;;;;1999.90;999.90;;;7.70;99.90;;;;;;5054717;28;20459;-70
2023/05/24 04:12:24;;;;;;;1999.90;999.90;;;7.70;99.90;;;;;;5054292;28;20446;-69
2023/05/24 04:14:50;;;;;;;1999.90;999.90;;;7.70;99.90;;;;;;5054319;28;20185;-70
2023/05/24 04:17:17;;;;;;;1999.90;999.90;;;7.70;99.90;;;;;;5054343;28;20172;-69
2023/05/24 04:19:42;;;;;;;1999.90;999.90;;;7.70;99.90;;;;;;5054345;28;20818;-69
2023/05/24 04:22:08;;;;;;;1999.90;999.90;;;7.80;99.90;;;;;;5054240;28;20409;-70
2023/05/24 04:24:34;;;;;;;1999.90;999.90;;;7.80;99.90;;;;;;5054332;28;20206;-69
2023/05/24 04:26:59;;;;;;;1999.90;999.90;;;7.80;99.90;;;;;;5054372;28;20175;-69
2023/05/24 04:29:25;;;;;;;1999.90;999.90;;;7.90;99.90;;;;;;5054457;28;20208;-70
2023/05/24 04:31:51;;;;;;;1999.90;999.90;;;7.90;99.90;;;;;;5054141;28;20168;-70
2023/05/24 04:34:17;;;;;;;1999.90;999.90;;;7.90;99.90;;;;;;5054316;28;20411;-70
2023/05/24 04:36:42;;;;;;;1999.90;999.90;;;7.90;99.90;;;;;;5054381;28;20707;-70
2023/05/24 04:39:08;;;;;;;1999.90;999.90;;;7.90;99.90;;;;;;5054196;28;20843;-69
2023/05/24 04:41:37;;;;;;;1999.90;999.90;;;7.90;99.90;;;;;;5053829;28;20186;-70
2023/05/24 04:44:03;;;;;;;1999.90;999.90;;;8.00;99.90;;;;;;5054276;28;20188;-70
2023/05/24 04:46:28;;;;;;;1999.90;999.90;;;8.10;99.90;;;;;;5053832;28;20401;-70
2023/05/24 04:48:54;;;;;;;1999.90;999.90;;;8.20;99.90;;;;;;5053795;28;20162;-70
2023/05/24 04:51:22;;;;;;;1999.90;999.90;;;8.30;99.90;;;;;;5053403;28;20572;-69
2023/05/24 04:53:47;;;;;;;1999.90;999.90;;;8.30;99.90;;;;;;5053573;28;20178;-70
2023/05/24 04:56:13;;;;;;;1999.90;999.90;;;8.40;99.90;;;;;;5053463;28;20790;-70
2023/05/24 04:58:40;;;;;;;1999.90;999.90;;;8.50;99.90;;;;;;5053613;28;20243;-70
2023/05/24 05:01:05;;;;;;;1999.90;999.90;;;8.60;99.90;;;;;;5053256;28;20512;-70
2023/05/24 05:03:31;;;;;;;1999.90;999.90;;;8.60;99.90;;;;;;5053554;28;20416;-70
2023/05/24 05:05:56;;;;;;;1999.90;999.90;;;8.70;99.90;;;;;;5053441;28;20207;-70
2023/05/24 05:08:22;;;;;;;1999.90;999.90;;;8.60;99.90;;;;;;5053723;28;20176;-70
2023/05/24 05:10:48;;;;;;;1999.90;999.90;;;8.60;99.90;;;;;;5053532;28;20814;-69
2023/05/24 05:13:13;;;;;;;1999.90;999.90;;;8.60;99.90;;;;;;5053292;28;20169;-70
2023/05/24 05:15:39;;;;;;;1999.90;999.90;;;8.70;99.90;;;;;;5053464;28;20190;-70
2023/05/24 05:18:04;;;;;;;1999.90;999.90;;;8.70;99.90;;;;;;5053348;28;20167;-70
2023/05/24 05:20:30;;;;;;;1999.90;999.90;;;8.90;99.90;;;;;;5053272;28;20186;-70
2023/05/24 05:22:55;;;;;;;1999.90;999.90;;;8.90;99.90;;;;;;5053006;28;20577;-70
2023/05/24 05:25:21;;;;;;;1999.90;999.90;;;9.00;99.90;;;;;;5053027;28;20681;-70
2023/05/24 05:27:47;;;;;;;1999.90;999.90;;;9.10;99.90;;;;;;5053140;28;20171;-69
2023/05/24 05:30:12;;;;;;;1999.90;999.90;;;9.10;99.90;;;;;;5053168;28;20356;-70
2023/05/24 05:32:38;;;;;;;1999.90;999.90;;;9.00;99.90;;;;;;5052615;28;20194;-70
2023/05/24 05:35:04;;;;;;;1999.90;999.90;;;9.00;99.90;;;;;;5052943;28;20178;-70
2023/05/24 05:37:30;;;;;;;1999.90;999.90;;;9.10;99.90;;;;;;5052848;28;20175;-70
2023/05/24 05:39:56;;;;;;;1999.90;999.90;;;9.20;99.90;;;;;;5052530;28;20962;-70
2023/05/24 05:42:22;;;;;;;1999.90;999.90;;;9.30;99.90;;;;;;5052390;28;20175;-69
2023/05/24 05:44:47;;;;;;;1999.90;999.90;;;9.40;99.90;;;;;;5052639;28;20289;-69
2023/05/24 05:47:13;;;;;;;1999.90;999.90;;;9.40;99.90;;;;;;5052655;28;20199;-70
2023/05/24 05:49:38;;;;;;;1999.90;999.90;;;9.40;99.90;;;;;;5052659;28;20656;-69
2023/05/24 05:52:05;;;;;;;1999.90;999.90;;;9.50;99.90;;;;;;5052289;28;20164;-70
2023/05/24 05:54:30;;;;;;;1999.90;999.90;;;9.60;99.90;;;;;;5052405;28;20179;-70
2023/05/24 05:56:57;;;;;;;1999.90;999.90;;;9.70;99.90;;;;;;5052593;28;20496;-70
2023/05/24 05:59:23;;;;;;;1999.90;999.90;;;9.80;99.90;;;;;;5052467;28;20491;-69
2023/05/24 06:01:48;;;;;;;1999.90;999.90;;;9.60;99.90;;;;;;5052106;28;20772;-69
2023/05/24 06:04:14;;;;;;;1999.90;999.90;;;9.60;99.90;;;;;;5052364;28;20449;-69
2023/05/24 06:06:40;;;;;;;1999.90;999.90;;;9.60;99.90;;;;;;5051700;28;20190;-70
2023/05/24 06:09:07;;;;;;;1999.90;999.90;;;9.60;99.90;;;;;;5052271;28;20899;-69
2023/05/24 06:11:32;;;;;;;1999.90;999.90;;;9.80;99.90;;;;;;5051912;28;20405;-70
2023/05/24 06:13:58;;;;;;;1999.90;999.90;;;9.90;99.90;;;;;;5052432;28;20425;-69
2023/05/24 06:16:23;;;;;;;1999.90;999.90;;;10.00;99.90;;;;;;5052151;28;20641;-70
2023/05/24 06:18:49;;;;;;;1999.90;999.90;;;10.10;99.90;;;;;;5052190;28;20174;-70
2023/05/24 06:21:15;;;;;;;1999.90;999.90;;;10.20;99.90;;;;;;5051757;28;20195;-70
2023/05/24 06:23:41;;;;;;;1999.90;999.90;;;10.20;99.90;;;;;;5052028;28;20175;-70
2023/05/24 06:26:08;;;;;;;1999.90;999.90;;;10.20;99.90;;;;;;5052130;28;21169;-70
2023/05/24 06:28:35;;;;;;;1999.90;999.90;;;10.40;99.90;;;;;;5052138;28;20414;-70
2023/05/24 06:31:04;;;;;;;1999.90;999.90;;;10.50;99.90;;;;;;5051590;28;20508;-70
2023/05/24 06:33:31;;;;;;;1999.90;999.90;;;10.40;99.90;;;;;;5051937;28;20945;-70
2023/05/24 06:35:57;;;;;;;1999.90;999.90;;;10.50;99.90;;;;;;5051940;28;20417;-70
2023/05/24 06:38:22;;;;;;;1999.90;999.90;;;10.70;99.90;;;;;;5051860;28;21057;-70
2023/05/24 06:40:48;;;;;;;1999.90;999.90;;;10.80;99.90;;;;;;5051558;28;20464;-70
2023/05/24 06:43:14;;;;;;;1999.90;999.90;;;11.10;99.90;;;;;;5051436;28;20176;-70
2023/05/24 06:45:39;;;;;;;1999.90;999.90;;;11.10;99.90;;;;;;5051551;28;20200;-70
2023/05/24 06:48:05;;;;;;;1999.90;999.90;;;11.10;99.90;;;;;;5051632;28;20182;-70
2023/05/24 06:50:30;;;;;;;1999.90;999.90;;;11.10;99.90;;;;;;5051666;28;20271;-70
2023/05/24 06:52:56;;;;;;;1999.90;999.90;;;11.20;99.90;;;;;;5051493;28;20177;-70
2023/05/24 06:55:22;;;;;;;1999.90;999.90;;;11.40;99.90;;;;;;5051655;28;20214;-70
2023/05/24 06:57:47;;;;;;;1999.90;999.90;;;11.50;99.90;;;;;;5051701;28;20179;-70
2023/05/24 07:00:13;;;;;;;1999.90;999.90;;;11.50;99.90;;;;;;5051611;28;20192;-70
2023/05/24 07:02:39;;;;;;;1999.90;999.90;;;11.70;99.90;;;;;;5051397;28;20188;-70
2023/05/24 07:05:10;;;;;;;1999.90;999.90;;;11.80;99.90;;;;;;5051472;28;20463;-70
2023/05/24 07:07:40;;;;;;;1999.90;999.90;;;12.00;99.90;;;;;;5051545;28;20181;-70
2023/05/24 07:10:10;;;;;;;1999.90;999.90;;;12.20;99.90;;;;;;5051404;28;20955;-70
2023/05/24 07:12:36;;;;;;;1999.90;999.90;;;12.50;99.90;;;;;;5051227;28;20404;-70
2023/05/24 07:15:03;;;;;;;1999.90;999.90;;;12.70;99.90;;;;;;5051503;28;20804;-70
2023/05/24 07:17:28;;;;;;;1999.90;999.90;;;12.80;99.90;;;;;;5052280;28;20416;-70
2023/05/24 07:19:54;;;;;;;1999.90;999.90;;;12.70;99.90;;;;;;5055308;28;20922;-70
2023/05/24 07:22:21;;;;;;;1999.90;999.90;;;12.40;99.90;;;;;;5055069;28;20215;-70
2023/05/24 07:24:46;;;;;;;1999.90;999.90;;;12.20;99.90;;;;;;5055501;28;20639;-70
2023/05/24 07:27:12;;;;;;;1999.90;999.90;;;12.20;99.90;;;;;;5055292;28;20440;-71
2023/05/24 07:29:38;;;;;;;1999.90;999.90;;;12.30;99.90;;;;;;5055100;28;20544;-71
2023/05/24 07:32:04;;;;;;;1999.90;999.90;;;12.60;99.90;;;;;;5054921;28;20181;-71
2023/05/24 07:34:30;;;;;;;1999.90;999.90;;;12.80;99.90;;;;;;5055023;28;20188;-70
2023/05/24 07:36:57;;;;;;;1999.90;999.90;;;13.20;99.90;;;;;;5055250;28;20444;-71
2023/05/24 07:39:24;;;;;;;1999.90;999.90;;;13.20;99.90;;;;;;5054759;28;20460;-70
2023/05/24 07:41:50;;;;;;;1999.90;999.90;;;12.80;99.90;;;;;;5054824;28;20408;-70
2023/05/24 07:44:15;;;;;;;1999.90;999.90;;;12.50;99.90;;;;;;5054916;28;20414;-70
2023/05/24 07:46:41;;;;;;;1999.90;999.90;;;12.10;99.90;;;;;;5054951;28;20398;-70
2023/05/24 07:49:07;;;;;;;1999.90;999.90;;;11.70;99.90;;;;;;5054790;28;20168;-70
2023/05/24 07:51:32;;;;;;;1999.90;999.90;;;11.70;99.90;;;;;;5054568;28;20175;-70
2023/05/24 07:53:58;;;;;;;1999.90;999.90;;;11.70;99.90;;;;;;5054736;28;20396;-70
2023/05/24 07:56:24;;;;;;;1999.90;999.90;;;11.70;99.90;;;;;;5054801;28;20214;-71
2023/05/24 07:58:50;;;;;;;1999.90;999.90;;;12.00;99.90;;;;;;5054677;28;20698;-71
2023/05/24 08:01:19;;;;;;;1999.90;999.90;;;12.40;99.90;;;;;;5054321;28;20427;-71
2023/05/24 08:03:45;;;;;;;1999.90;999.90;;;12.80;99.90;;;;;;5054612;28;20816;-70
2023/05/24 08:06:11;;;;;;;1999.90;999.90;;;13.10;99.90;;;;;;5054626;28;20453;-70
2023/05/24 08:08:37;;;;;;;1999.90;999.90;;;13.10;99.90;;;;;;5054522;28;20448;-70
2023/05/24 08:11:03;;;;;;;1999.90;999.90;;;12.90;99.90;;;;;;5054187;28;20419;-70
2023/05/24 08:13:28;;;;;;;1999.90;999.90;;;12.90;99.90;;;;;;5054737;28;20786;-69
2023/05/24 08:15:54;;;;;;;1999.90;999.90;;;12.90;99.90;;;;;;5054475;28;20171;-70
2023/05/24 08:18:20;;;;;;;1999.90;999.90;;;12.50;99.90;;;;;;5054417;28;20204;-70
2023/05/24 08:20:45;;;;;;;1999.90;999.90;;;12.40;99.90;;;;;;5054509;28;20197;-70
2023/05/24 08:23:11;;;;;;;1999.90;999.90;;;12.60;99.90;;;;;;5054295;28;20176;-70
2023/05/24 08:25:37;;;;;;;1999.90;999.90;;;12.70;99.90;;;;;;5054442;28;20262;-70
2023/05/24 08:28:02;;;;;;;1999.90;999.90;;;12.90;99.90;;;;;;5054466;28;20181;-70
2023/05/24 08:30:28;;;;;;;1999.90;999.90;;;13.10;99.90;;;;;;5053633;28;20192;-70
2023/05/24 08:32:53;;;;;;;1999.90;999.90;;;13.30;99.90;;;;;;5054530;28;20177;-70
2023/05/24 08:35:19;;;;;;;1999.90;999.90;;;13.60;99.90;;;;;;5054520;28;20656;-70
2023/05/24 08:37:46;;;;;;;1999.90;999.90;;;13.90;99.90;;;;;;5054419;28;20545;-69
2023/05/24 08:40:11;;;;;;;1999.90;999.90;;;14.30;99.90;;;;;;5054348;28;20215;-70
2023/05/24 08:42:38;;;;;;;1999.90;999.90;;;14.70;99.90;;;;;;5054157;28;20414;-70
2023/05/24 08:45:12;;;;;;;1999.90;999.90;;;14.80;99.90;;;;;;5054579;28;20201;-70
2023/05/24 08:47:38;;;;;;;1999.90;999.90;;;14.70;99.90;;;;;;5053979;28;20734;-70
2023/05/24 08:50:05;;;;;;;1999.90;999.90;;;14.30;99.90;;;;;;5053796;28;20795;-72
2023/05/24 08:52:31;;;;;;;1999.90;999.90;;;13.60;99.90;;;;;;5048307;28;20944;-71
2023/05/24 08:55:01;;;;;;;1999.90;999.90;;;13.30;99.90;;;;;;5049809;28;20509;-70
2023/05/24 08:57:27;;;;;;;1999.90;999.90;;;13.50;99.90;;;;;;5048936;28;20452;-71
2023/05/24 08:59:54;;;;;;;1999.90;999.90;;;14.00;99.90;;;;;;5048617;28;20458;-72
2023/05/24 09:02:21;;;;;;;1999.90;999.90;;;14.30;99.90;;;;;;5049592;28;20413;-72
2023/05/24 09:04:52;;;;;;;1999.90;999.90;;;14.60;99.90;;;;;;5045648;28;20512;-70
2023/05/24 09:07:22;;;;;;;1999.90;999.90;;;14.50;99.90;;;;;;5048677;28;20412;-71
2023/05/24 09:10:18;;;;;;;1999.90;999.90;;;14.30;99.90;;;;;;5048716;28;20516;-74
2023/05/24 09:12:47;;;;;;;1999.90;999.90;;;13.90;99.90;;;;;;5044578;28;21126;-73
2023/05/24 09:15:13;;;;;;;1999.90;999.90;;;13.50;99.90;;;;;;5048888;28;20479;-71
2023/05/24 09:17:39;;;;;;;1999.90;999.90;;;13.20;99.90;;;;;;5048782;28;20448;-73
2023/05/24 09:20:09;;;;;;;1999.90;999.90;;;13.20;99.90;;;;;;5048764;28;20203;-73
2023/05/24 09:22:37;;;;;;;1999.90;999.90;;;13.10;99.90;;;;;;5048197;28;20800;-72
2023/05/24 09:25:04;;;;;;;1999.90;999.90;;;13.20;99.90;;;;;;5048885;28;20463;-71
2023/05/24 09:27:33;;;;;;;1999.90;999.90;;;13.00;99.90;;;;;;5051109;28;20792;-71
2023/05/24 09:29:59;;;;;;;1999.90;999.90;;;12.80;99.90;;;;;;5051235;28;20432;-71
2023/05/24 09:32:24;;;;;;;1999.90;999.90;;;12.80;99.90;;;;;;5048921;28;20910;-71
2023/05/24 09:34:52;;;;;;;1999.90;999.90;;;12.90;99.90;;;;;;5049813;28;20416;-73
2023/05/24 09:37:21;;;;;;;1999.90;999.90;;;13.00;99.90;;;;;;5048533;28;20190;-72
2023/05/24 09:39:49;;;;;;;1999.90;999.90;;;13.00;99.90;;;;;;5048394;28;20940;-69
2023/05/24 09:42:25;;;;;;;1999.90;999.90;;;12.90;99.90;;;;;;5046493;28;20569;-69
2023/05/24 09:45:10;;;;;;;1999.90;999.90;;;13.00;99.90;;;;;;5048139;28;20455;-70
2023/05/24 09:47:38;;;;;;;1999.90;999.90;;;13.10;99.90;;;;;;5047575;28;20423;-70
2023/05/24 09:50:10;;;;;;;1999.90;999.90;;;13.40;99.90;;;;;;5047648;28;20437;-69
2023/05/24 09:52:36;;;;;;;1999.90;999.90;;;13.60;99.90;;;;;;5048266;28;20414;-70
2023/05/24 09:55:14;;;;;;;1999.90;999.90;;;13.90;99.90;;;;;;5047676;28;20557;-69
2023/05/24 09:57:40;;;;;;;1999.90;999.90;;;14.00;99.90;;;;;;5047314;28;20501;-69
2023/05/24 10:00:20;;;;;;;1999.90;999.90;;;13.90;99.90;;;;;;5047506;28;20436;-69
2023/05/24 10:03:02;;;;;;;1999.90;999.90;;;14.10;99.90;;;;;;5047377;28;20495;-69
2023/05/24 10:05:29;;;;;;;1999.90;999.90;;;14.20;99.90;;;;;;5046957;28;20462;-69
2023/05/24 10:07:56;;;;;;;1999.90;999.90;;;14.20;99.90;;;;;;5047447;28;20463;-69
2023/05/24 10:10:22;;;;;;;1999.90;999.90;;;14.30;99.90;;;;;;5048284;28;20438;-69
2023/05/24 10:12:48;;;;;;;1999.90;999.90;;;14.40;99.90;;;;;;5046627;28;20416;-70
2023/05/24 10:15:14;;;;;;;1999.90;999.90;;;14.30;99.90;;;;;;5047551;28;20495;-70
2023/05/24 10:17:40;;;;;;;1999.90;999.90;;;14.40;99.90;;;;;;5048176;28;20416;-70
2023/05/24 10:20:07;;;;;;;1999.90;999.90;;;14.50;99.90;;;;;;5046811;28;20876;-70
2023/05/24 10:22:39;;;;;;;1999.90;999.90;;;14.50;99.90;;;;;;5047427;28;20213;-69
2023/05/24 10:25:07;;;;;;;1999.90;999.90;;;14.60;99.90;;;;;;5048067;28;20450;-70
2023/05/24 10:27:33;;;;;;;1999.90;999.90;;;14.80;99.90;;;;;;5046990;28;20485;-70
2023/05/24 10:30:04;;;;;;;1999.90;999.90;;;15.00;99.90;;;;;;5046933;28;20430;-70
2023/05/24 10:32:34;;;;;;;1999.90;999.90;;;15.20;99.90;;;;;;5047296;28;20188;-70
2023/05/24 10:35:01;;;;;;;1999.90;999.90;;;15.50;99.90;;;;;;5047628;28;20493;-70
2023/05/24 10:37:26;;;;;;;1999.90;999.90;;;15.80;99.90;;;;;;5047086;28;20433;-70
2023/05/24 10:39:52;;;;;;;1999.90;999.90;;;16.10;99.90;;;;;;5046725;28;20490;-70
2023/05/24 10:42:18;;;;;;;1999.90;999.90;;;16.30;99.90;;;;;;5047239;28;20186;-70
2023/05/24 10:44:44;;;;;;;1999.90;999.90;;;16.20;99.90;;;;;;5046857;28;20552;-69
2023/05/24 10:47:12;;;;;;;1999.90;999.90;;;16.40;99.90;;;;;;5048083;28;20414;-70
2023/05/24 10:49:46;;;;;;;1999.90;999.90;;;16.10;99.90;;;;;;5047217;28;20442;-71
2023/05/24 10:52:12;;;;;;;1999.90;999.90;;;16.10;99.90;;;;;;5047440;28;20699;-71
2023/05/24 10:54:38;;;;;;;1999.90;999.90;;;15.90;99.90;;;;;;5051311;28;20433;-71
2023/05/24 10:57:06;;;;;;;1999.90;999.90;;;15.70;99.90;;;;;;5051531;28;20455;-71
2023/05/24 10:59:37;;;;;;;1999.90;999.90;;;15.60;99.90;;;;;;5051884;28;20516;-70
2023/05/24 11:02:15;;;;;;;1999.90;999.90;;;15.60;99.90;;;;;;5050922;28;20415;-71
2023/05/24 11:04:45;;;;;;;1999.90;999.90;;;15.50;99.90;;;;;;5050565;28;20468;-71
2023/05/24 11:07:13;;;;;;;1999.90;999.90;;;15.60;99.90;;;;;;5051033;28;20507;-71
2023/05/24 11:09:45;;;;;;;1999.90;999.90;;;15.80;99.90;;;;;;5051516;28;20429;-71
2023/05/24 11:12:19;;;;;;;1999.90;999.90;;;15.90;99.90;;;;;;5051043;28;20461;-71
2023/05/24 11:14:51;;;;;;;1999.90;999.90;;;15.90;99.90;;;;;;5051794;28;20418;-71
2023/05/24 11:17:22;;;;;;;1999.90;999.90;;;16.00;99.90;;;;;;5050902;28;20813;-71
2023/05/24 11:19:52;;;;;;;1999.90;999.90;;;16.00;99.90;;;;;;5050665;28;20491;-71
2023/05/24 11:22:20;;;;;;;1999.90;999.90;;;16.10;99.90;;;;;;5050500;28;20413;-71
2023/05/24 11:24:46;;;;;;;1999.90;999.90;;;16.30;99.90;;;;;;5051228;28;20943;-71
2023/05/24 11:27:13;;;;;;;1999.90;999.90;;;15.90;99.90;;;;;;5050829;28;20471;-71
2023/05/24 11:29:46;;;;;;;1999.90;999.90;;;15.80;99.90;;;;;;5050511;28;20780;-71
2023/05/24 11:32:17;;;;;;;1999.90;999.90;;;16.00;99.90;;;;;;5049993;28;20465;-71
2023/05/24 11:34:44;;;;;;;1999.90;999.90;;;16.40;99.90;;;;;;5051334;28;20408;-71
2023/05/24 11:37:10;;;;;;;1999.90;999.90;;;16.30;99.90;;;;;;5050686;28;20429;-71
2023/05/24 11:39:37;;;;;;;1999.90;999.90;;;16.50;99.90;;;;;;5049911;28;20457;-71
2023/05/24 11:42:07;;;;;;;1999.90;999.90;;;16.60;99.90;;;;;;5050776;28;20428;-72
2023/05/24 11:44:34;;;;;;;1999.90;999.90;;;16.70;99.90;;;;;;5050775;28;21066;-72
2023/05/24 11:47:00;;;;;;;1999.90;999.90;;;17.20;99.90;;;;;;5049948;28;20920;-72
2023/05/24 11:49:27;;;;;;;1999.90;999.90;;;17.00;99.90;;;;;;5050700;28;21027;-72
2023/05/24 11:51:55;;;;;;;1999.90;999.90;;;16.70;99.90;;;;;;5050439;28;20820;-72
2023/05/24 11:54:25;;;;;;;1999.90;999.90;;;16.60;99.90;;;;;;5049986;28;20501;-71
2023/05/24 11:56:52;;;;;;;1999.90;999.90;;;16.40;99.90;;;;;;5051221;28;20785;-71
2023/05/24 11:59:23;;;;;;;1999.90;999.90;;;16.10;99.90;;;;;;5050929;28;20444;-71
2023/05/24 12:01:55;;;;;;;1999.90;999.90;;;16.00;99.90;;;;;;5049826;28;20475;-71
2023/05/24 12:04:21;;;;;;;1999.90;999.90;;;16.20;99.90;;;;;;5049021;28;20411;-70